sensor_id;sensor_type;location;lat;lon;timestamp;P1;durP1;ratioP1;P2;durP2;ratioP2
14400;SDS011;7285;50.894;5.462;2023-03-11T00:01:02;1.20;;;1.20;;
14400;SDS011;7285;50.894;5.462;2023-03-11T00:03:29;1.40;;;1.40;;
14400;SDS011;7285;50.894;5.462;2023-03-11T00:05:56;1.57;;;1.57;;
14400;SDS011;7285;50.894;5.462;2023-03-11T00:08:28;1.40;;;1.40;;
14400;SDS011;7285;50.894;5.462;2023-03-11T00:10:56;1.50;;;1.50;;
14400;SDS011;7285;50.894;5.462;2023-03-11T00:13:25;1.70;;;1.70;;
14400;SDS011;7285;50.894;5.462;2023-03-11T00:15:53;1.50;;;1.50;;
14400;SDS011;7285;50.894;5.462;2023-03-11T00:18:23;1.60;;;1.60;;
14400;SDS011;7285;50.894;5.462;2023-03-11T00:20:52;1.90;;;1.90;;
14400;SDS011;7285;50.894;5.462;2023-03-11T00:23:20;1.60;;;1.60;;
14400;SDS011;7285;50.894;5.462;2023-03-11T00:25:48;1.40;;;1.40;;
14400;SDS011;7285;50.894;5.462;2023-03-11T00:28:15;1.60;;;1.60;;
14400;SDS011;7285;50.894;5.462;2023-03-11T00:30:43;1.50;;;1.50;;
14400;SDS011;7285;50.894;5.462;2023-03-11T00:33:11;1.60;;;1.60;;
14400;SDS011;7285;50.894;5.462;2023-03-11T00:35:40;1.40;;;1.40;;
14400;SDS011;7285;50.894;5.462;2023-03-11T00:38:10;1.47;;;1.47;;
14400;SDS011;7285;50.894;5.462;2023-03-11T00:40:39;1.40;;;1.40;;
14400;SDS011;7285;50.894;5.462;2023-03-11T00:43:06;1.50;;;1.50;;
14400;SDS011;7285;50.894;5.462;2023-03-11T00:45:34;1.60;;;1.60;;
14400;SDS011;7285;50.894;5.462;2023-03-11T00:48:01;1.50;;;1.50;;
14400;SDS011;7285;50.894;5.462;2023-03-11T00:50:28;2.93;;;2.83;;
14400;SDS011;7285;50.894;5.462;2023-03-11T00:52:59;1.50;;;1.50;;
14400;SDS011;7285;50.894;5.462;2023-03-11T00:55:27;1.50;;;1.50;;
14400;SDS011;7285;50.894;5.462;2023-03-11T00:57:56;1.50;;;1.50;;
14400;SDS011;7285;50.894;5.462;2023-03-11T01:00:24;1.50;;;1.50;;
14400;SDS011;7285;50.894;5.462;2023-03-11T01:02:52;1.50;;;1.50;;
14400;SDS011;7285;50.894;5.462;2023-03-11T01:05:21;1.50;;;1.50;;
14400;SDS011;7285;50.894;5.462;2023-03-11T01:07:49;1.50;;;1.50;;
14400;SDS011;7285;50.894;5.462;2023-03-11T01:10:18;1.40;;;1.40;;
14400;SDS011;7285;50.894;5.462;2023-03-11T01:12:45;1.57;;;1.57;;
14400;SDS011;7285;50.894;5.462;2023-03-11T01:15:14;1.50;;;1.50;;
14400;SDS011;7285;50.894;5.462;2023-03-11T01:17:44;1.60;;;1.60;;
14400;SDS011;7285;50.894;5.462;2023-03-11T01:20:11;1.50;;;1.50;;
14400;SDS011;7285;50.894;5.462;2023-03-11T01:22:39;1.50;;;1.50;;
14400;SDS011;7285;50.894;5.462;2023-03-11T01:25:06;1.50;;;1.50;;
14400;SDS011;7285;50.894;5.462;2023-03-11T01:27:36;1.50;;;1.50;;
14400;SDS011;7285;50.894;5.462;2023-03-11T01:30:04;1.40;;;1.40;;
14400;SDS011;7285;50.894;5.462;2023-03-11T01:32:32;1.50;;;1.50;;
14400;SDS011;7285;50.894;5.462;2023-03-11T01:34:59;1.40;;;1.40;;
14400;SDS011;7285;50.894;5.462;2023-03-11T01:37:26;1.50;;;1.50;;
14400;SDS011;7285;50.894;5.462;2023-03-11T01:39:52;1.50;;;1.50;;
14400;SDS011;7285;50.894;5.462;2023-03-11T01:42:19;1.50;;;1.50;;
14400;SDS011;7285;50.894;5.462;2023-03-11T01:44:48;1.53;;;1.53;;
14400;SDS011;7285;50.894;5.462;2023-03-11T01:47:34;1.40;;;1.40;;
14400;SDS011;7285;50.894;5.462;2023-03-11T01:50:04;1.23;;;1.23;;
14400;SDS011;7285;50.894;5.462;2023-03-11T01:52:35;1.30;;;1.30;;
14400;SDS011;7285;50.894;5.462;2023-03-11T01:55:04;1.50;;;1.50;;
14400;SDS011;7285;50.894;5.462;2023-03-11T01:57:31;1.50;;;1.50;;
14400;SDS011;7285;50.894;5.462;2023-03-11T02:00:00;1.50;;;1.50;;
14400;SDS011;7285;50.894;5.462;2023-03-11T02:02:31;1.40;;;1.40;;
14400;SDS011;7285;50.894;5.462;2023-03-11T02:05:01;1.40;;;1.40;;
14400;SDS011;7285;50.894;5.462;2023-03-11T02:07:29;1.40;;;1.40;;
14400;SDS011;7285;50.894;5.462;2023-03-11T02:09:57;1.10;;;1.10;;
14400;SDS011;7285;50.894;5.462;2023-03-11T02:12:24;1.53;;;1.53;;
14400;SDS011;7285;50.894;5.462;2023-03-11T02:14:56;1.40;;;1.40;;
14400;SDS011;7285;50.894;5.462;2023-03-11T02:17:24;1.30;;;1.30;;
14400;SDS011;7285;50.894;5.462;2023-03-11T02:19:58;1.40;;;1.40;;
14400;SDS011;7285;50.894;5.462;2023-03-11T02:22:36;1.50;;;1.50;;
14400;SDS011;7285;50.894;5.462;2023-03-11T02:25:07;1.83;;;1.83;;
14400;SDS011;7285;50.894;5.462;2023-03-11T02:27:41;1.40;;;1.40;;
14400;SDS011;7285;50.894;5.462;2023-03-11T02:30:12;1.30;;;1.30;;
14400;SDS011;7285;50.894;5.462;2023-03-11T02:32:40;1.50;;;1.50;;
14400;SDS011;7285;50.894;5.462;2023-03-11T02:35:11;1.60;;;1.60;;
14400;SDS011;7285;50.894;5.462;2023-03-11T02:37:42;1.30;;;1.30;;
14400;SDS011;7285;50.894;5.462;2023-03-11T02:40:34;1.60;;;1.60;;
14400;SDS011;7285;50.894;5.462;2023-03-11T02:43:08;1.50;;;1.50;;
14400;SDS011;7285;50.894;5.462;2023-03-11T02:45:36;1.57;;;1.57;;
14400;SDS011;7285;50.894;5.462;2023-03-11T02:48:06;1.43;;;1.43;;
14400;SDS011;7285;50.894;5.462;2023-03-11T02:50:35;1.50;;;1.50;;
14400;SDS011;7285;50.894;5.462;2023-03-11T02:53:02;1.50;;;1.50;;
14400;SDS011;7285;50.894;5.462;2023-03-11T02:55:30;1.60;;;1.60;;
14400;SDS011;7285;50.894;5.462;2023-03-11T02:57:57;1.40;;;1.40;;
14400;SDS011;7285;50.894;5.462;2023-03-11T03:00:26;1.50;;;1.50;;
14400;SDS011;7285;50.894;5.462;2023-03-11T03:02:53;1.50;;;1.50;;
14400;SDS011;7285;50.894;5.462;2023-03-11T03:05:20;1.50;;;1.50;;
14400;SDS011;7285;50.894;5.462;2023-03-11T03:07:48;1.47;;;1.47;;
14400;SDS011;7285;50.894;5.462;2023-03-11T03:10:16;1.50;;;1.50;;
14400;SDS011;7285;50.894;5.462;2023-03-11T03:12:45;1.40;;;1.40;;
14400;SDS011;7285;50.894;5.462;2023-03-11T03:15:12;1.60;;;1.60;;
14400;SDS011;7285;50.894;5.462;2023-03-11T03:17:41;1.60;;;1.60;;
14400;SDS011;7285;50.894;5.462;2023-03-11T03:20:09;1.50;;;1.50;;
14400;SDS011;7285;50.894;5.462;2023-03-11T03:22:38;1.40;;;1.40;;
14400;SDS011;7285;50.894;5.462;2023-03-11T03:25:06;1.50;;;1.50;;
14400;SDS011;7285;50.894;5.462;2023-03-11T03:27:34;1.70;;;1.70;;
14400;SDS011;7285;50.894;5.462;2023-03-11T03:30:02;1.60;;;1.60;;
14400;SDS011;7285;50.894;5.462;2023-03-11T03:32:30;1.33;;;1.33;;
14400;SDS011;7285;50.894;5.462;2023-03-11T03:34:59;1.60;;;1.60;;
14400;SDS011;7285;50.894;5.462;2023-03-11T03:37:26;1.60;;;1.60;;
14400;SDS011;7285;50.894;5.462;2023-03-11T03:39:54;1.50;;;1.50;;
14400;SDS011;7285;50.894;5.462;2023-03-11T03:42:21;1.50;;;1.50;;
14400;SDS011;7285;50.894;5.462;2023-03-11T03:44:49;1.63;;;1.63;;
14400;SDS011;7285;50.894;5.462;2023-03-11T03:47:17;1.50;;;1.50;;
14400;SDS011;7285;50.894;5.462;2023-03-11T03:49:44;1.60;;;1.60;;
14400;SDS011;7285;50.894;5.462;2023-03-11T03:52:12;1.60;;;1.60;;
14400;SDS011;7285;50.894;5.462;2023-03-11T03:54:40;1.40;;;1.40;;
14400;SDS011;7285;50.894;5.462;2023-03-11T03:57:07;1.50;;;1.50;;
14400;SDS011;7285;50.894;5.462;2023-03-11T03:59:34;1.50;;;1.50;;
14400;SDS011;7285;50.894;5.462;2023-03-11T04:02:01;1.40;;;1.40;;
14400;SDS011;7285;50.894;5.462;2023-03-11T04:04:28;1.50;;;1.50;;
14400;SDS011;7285;50.894;5.462;2023-03-11T04:06:55;1.37;;;1.37;;
14400;SDS011;7285;50.894;5.462;2023-03-11T04:09:23;1.43;;;1.43;;
14400;SDS011;7285;50.894;5.462;2023-03-11T04:11:51;1.43;;;1.43;;
14400;SDS011;7285;50.894;5.462;2023-03-11T04:14:18;1.50;;;1.50;;
14400;SDS011;7285;50.894;5.462;2023-03-11T04:16:45;1.50;;;1.50;;
14400;SDS011;7285;50.894;5.462;2023-03-11T04:19:12;1.47;;;1.47;;
14400;SDS011;7285;50.894;5.462;2023-03-11T04:21:39;1.50;;;1.50;;
14400;SDS011;7285;50.894;5.462;2023-03-11T04:24:06;1.43;;;1.43;;
14400;SDS011;7285;50.894;5.462;2023-03-11T04:26:34;1.70;;;1.70;;
14400;SDS011;7285;50.894;5.462;2023-03-11T04:29:02;1.60;;;1.60;;
14400;SDS011;7285;50.894;5.462;2023-03-11T04:31:28;1.50;;;1.50;;
14400;SDS011;7285;50.894;5.462;2023-03-11T04:33:55;1.60;;;1.60;;
14400;SDS011;7285;50.894;5.462;2023-03-11T04:36:22;1.50;;;1.50;;
14400;SDS011;7285;50.894;5.462;2023-03-11T04:38:49;1.60;;;1.60;;
14400;SDS011;7285;50.894;5.462;2023-03-11T04:41:16;1.70;;;1.70;;
14400;SDS011;7285;50.894;5.462;2023-03-11T04:43:44;1.70;;;1.70;;
14400;SDS011;7285;50.894;5.462;2023-03-11T04:46:11;1.57;;;1.57;;
14400;SDS011;7285;50.894;5.462;2023-03-11T04:48:38;1.60;;;1.60;;
14400;SDS011;7285;50.894;5.462;2023-03-11T04:51:06;1.60;;;1.60;;
14400;SDS011;7285;50.894;5.462;2023-03-11T04:53:33;1.60;;;1.60;;
14400;SDS011;7285;50.894;5.462;2023-03-11T04:56:00;1.60;;;1.60;;
14400;SDS011;7285;50.894;5.462;2023-03-11T04:58:27;1.53;;;1.53;;
14400;SDS011;7285;50.894;5.462;2023-03-11T05:00:55;1.70;;;1.70;;
14400;SDS011;7285;50.894;5.462;2023-03-11T05:03:22;1.60;;;1.60;;
14400;SDS011;7285;50.894;5.462;2023-03-11T05:05:49;1.60;;;1.60;;
14400;SDS011;7285;50.894;5.462;2023-03-11T05:08:20;1.67;;;1.67;;
14400;SDS011;7285;50.894;5.462;2023-03-11T05:10:48;1.67;;;1.67;;
14400;SDS011;7285;50.894;5.462;2023-03-11T05:13:17;1.67;;;1.67;;
14400;SDS011;7285;50.894;5.462;2023-03-11T05:15:44;1.70;;;1.70;;
14400;SDS011;7285;50.894;5.462;2023-03-11T05:18:13;1.53;;;1.53;;
14400;SDS011;7285;50.894;5.462;2023-03-11T05:20:40;1.60;;;1.60;;
14400;SDS011;7285;50.894;5.462;2023-03-11T05:23:07;1.60;;;1.60;;
14400;SDS011;7285;50.894;5.462;2023-03-11T05:25:34;1.80;;;1.80;;
14400;SDS011;7285;50.894;5.462;2023-03-11T05:28:01;1.73;;;1.73;;
14400;SDS011;7285;50.894;5.462;2023-03-11T05:30:28;1.70;;;1.70;;
14400;SDS011;7285;50.894;5.462;2023-03-11T05:32:55;1.70;;;1.70;;
14400;SDS011;7285;50.894;5.462;2023-03-11T05:35:24;1.70;;;1.70;;
14400;SDS011;7285;50.894;5.462;2023-03-11T05:37:51;1.80;;;1.80;;
14400;SDS011;7285;50.894;5.462;2023-03-11T05:40:19;1.77;;;1.77;;
14400;SDS011;7285;50.894;5.462;2023-03-11T05:42:46;1.70;;;1.70;;
14400;SDS011;7285;50.894;5.462;2023-03-11T05:45:13;1.60;;;1.60;;
14400;SDS011;7285;50.894;5.462;2023-03-11T05:47:40;1.60;;;1.60;;
14400;SDS011;7285;50.894;5.462;2023-03-11T05:50:08;1.70;;;1.70;;
14400;SDS011;7285;50.894;5.462;2023-03-11T05:52:37;1.80;;;1.80;;
14400;SDS011;7285;50.894;5.462;2023-03-11T05:55:05;1.70;;;1.70;;
14400;SDS011;7285;50.894;5.462;2023-03-11T05:57:36;1.80;;;1.80;;
14400;SDS011;7285;50.894;5.462;2023-03-11T06:00:04;1.70;;;1.70;;
14400;SDS011;7285;50.894;5.462;2023-03-11T06:02:35;1.80;;;1.80;;
14400;SDS011;7285;50.894;5.462;2023-03-11T06:05:03;1.57;;;1.57;;
14400;SDS011;7285;50.894;5.462;2023-03-11T06:07:32;1.70;;;1.70;;
14400;SDS011;7285;50.894;5.462;2023-03-11T06:10:00;2.03;;;2.03;;
14400;SDS011;7285;50.894;5.462;2023-03-11T06:12:28;1.70;;;1.70;;
14400;SDS011;7285;50.894;5.462;2023-03-11T06:14:55;1.50;;;1.50;;
14400;SDS011;7285;50.894;5.462;2023-03-11T06:17:21;1.60;;;1.60;;
14400;SDS011;7285;50.894;5.462;2023-03-11T06:19:48;1.70;;;1.70;;
14400;SDS011;7285;50.894;5.462;2023-03-11T06:22:15;1.70;;;1.70;;
14400;SDS011;7285;50.894;5.462;2023-03-11T06:24:42;1.50;;;1.50;;
14400;SDS011;7285;50.894;5.462;2023-03-11T06:27:10;1.60;;;1.60;;
14400;SDS011;7285;50.894;5.462;2023-03-11T06:29:37;1.60;;;1.60;;
14400;SDS011;7285;50.894;5.462;2023-03-11T06:32:05;1.60;;;1.60;;
14400;SDS011;7285;50.894;5.462;2023-03-11T06:34:32;1.60;;;1.60;;
14400;SDS011;7285;50.894;5.462;2023-03-11T06:36:59;1.77;;;1.77;;
14400;SDS011;7285;50.894;5.462;2023-03-11T06:39:26;1.70;;;1.70;;
14400;SDS011;7285;50.894;5.462;2023-03-11T06:41:53;1.60;;;1.60;;
14400;SDS011;7285;50.894;5.462;2023-03-11T06:44:21;1.50;;;1.50;;
14400;SDS011;7285;50.894;5.462;2023-03-11T06:46:48;1.70;;;1.70;;
14400;SDS011;7285;50.894;5.462;2023-03-11T06:49:15;1.70;;;1.70;;
14400;SDS011;7285;50.894;5.462;2023-03-11T06:51:42;1.67;;;1.67;;
14400;SDS011;7285;50.894;5.462;2023-03-11T06:54:09;1.70;;;1.70;;
14400;SDS011;7285;50.894;5.462;2023-03-11T06:56:36;1.67;;;1.67;;
14400;SDS011;7285;50.894;5.462;2023-03-11T06:59:03;1.67;;;1.67;;
14400;SDS011;7285;50.894;5.462;2023-03-11T07:01:31;1.50;;;1.50;;
14400;SDS011;7285;50.894;5.462;2023-03-11T07:03:58;1.60;;;1.60;;
14400;SDS011;7285;50.894;5.462;2023-03-11T07:06:26;1.60;;;1.60;;
14400;SDS011;7285;50.894;5.462;2023-03-11T07:08:53;1.50;;;1.50;;
14400;SDS011;7285;50.894;5.462;2023-03-11T07:11:21;1.50;;;1.50;;
14400;SDS011;7285;50.894;5.462;2023-03-11T07:13:49;1.53;;;1.53;;
14400;SDS011;7285;50.894;5.462;2023-03-11T07:16:17;1.70;;;1.70;;
14400;SDS011;7285;50.894;5.462;2023-03-11T07:18:47;1.60;;;1.60;;
14400;SDS011;7285;50.894;5.462;2023-03-11T07:21:15;1.60;;;1.60;;
14400;SDS011;7285;50.894;5.462;2023-03-11T07:23:44;1.77;;;1.77;;
14400;SDS011;7285;50.894;5.462;2023-03-11T07:26:13;1.40;;;1.40;;
14400;SDS011;7285;50.894;5.462;2023-03-11T07:28:42;1.40;;;1.40;;
14400;SDS011;7285;50.894;5.462;2023-03-11T07:31:10;1.57;;;1.57;;
14400;SDS011;7285;50.894;5.462;2023-03-11T07:33:42;1.40;;;1.40;;
14400;SDS011;7285;50.894;5.462;2023-03-11T07:36:11;1.50;;;1.50;;
14400;SDS011;7285;50.894;5.462;2023-03-11T07:38:39;1.40;;;1.40;;
14400;SDS011;7285;50.894;5.462;2023-03-11T07:41:07;1.53;;;1.53;;
14400;SDS011;7285;50.894;5.462;2023-03-11T07:43:35;1.47;;;1.47;;
14400;SDS011;7285;50.894;5.462;2023-03-11T07:46:03;1.53;;;1.53;;
14400;SDS011;7285;50.894;5.462;2023-03-11T07:48:30;1.50;;;1.50;;
14400;SDS011;7285;50.894;5.462;2023-03-11T07:51:02;1.33;;;1.33;;
14400;SDS011;7285;50.894;5.462;2023-03-11T07:53:31;1.40;;;1.40;;
14400;SDS011;7285;50.894;5.462;2023-03-11T07:55:59;1.77;;;1.77;;
14400;SDS011;7285;50.894;5.462;2023-03-11T07:58:26;1.40;;;1.40;;
14400;SDS011;7285;50.894;5.462;2023-03-11T08:00:53;1.20;;;1.20;;
14400;SDS011;7285;50.894;5.462;2023-03-11T08:03:21;1.37;;;1.37;;
14400;SDS011;7285;50.894;5.462;2023-03-11T08:05:48;1.20;;;1.20;;
14400;SDS011;7285;50.894;5.462;2023-03-11T08:08:16;1.40;;;1.40;;
14400;SDS011;7285;50.894;5.462;2023-03-11T08:10:44;1.50;;;1.50;;
14400;SDS011;7285;50.894;5.462;2023-03-11T08:13:11;1.20;;;1.20;;
14400;SDS011;7285;50.894;5.462;2023-03-11T08:15:38;1.70;;;1.70;;
14400;SDS011;7285;50.894;5.462;2023-03-11T08:18:05;1.13;;;1.13;;
14400;SDS011;7285;50.894;5.462;2023-03-11T08:20:32;1.20;;;1.20;;
14400;SDS011;7285;50.894;5.462;2023-03-11T08:23:00;1.30;;;1.30;;
14400;SDS011;7285;50.894;5.462;2023-03-11T08:25:27;1.23;;;1.23;;
14400;SDS011;7285;50.894;5.462;2023-03-11T08:27:55;1.20;;;1.20;;
14400;SDS011;7285;50.894;5.462;2023-03-11T08:30:22;1.63;;;1.63;;
14400;SDS011;7285;50.894;5.462;2023-03-11T08:32:49;1.20;;;1.20;;
14400;SDS011;7285;50.894;5.462;2023-03-11T08:35:16;1.20;;;1.20;;
14400;SDS011;7285;50.894;5.462;2023-03-11T08:37:43;1.17;;;1.17;;
14400;SDS011;7285;50.894;5.462;2023-03-11T08:40:11;1.00;;;1.00;;
14400;SDS011;7285;50.894;5.462;2023-03-11T08:42:38;1.10;;;1.10;;
14400;SDS011;7285;50.894;5.462;2023-03-11T08:45:08;1.27;;;1.27;;
14400;SDS011;7285;50.894;5.462;2023-03-11T08:47:35;1.10;;;1.10;;
14400;SDS011;7285;50.894;5.462;2023-03-11T08:50:03;1.60;;;1.60;;
14400;SDS011;7285;50.894;5.462;2023-03-11T08:52:32;1.10;;;1.10;;
14400;SDS011;7285;50.894;5.462;2023-03-11T08:54:59;1.10;;;1.10;;
14400;SDS011;7285;50.894;5.462;2023-03-11T08:57:28;1.13;;;1.13;;
14400;SDS011;7285;50.894;5.462;2023-03-11T08:59:56;1.13;;;1.13;;
14400;SDS011;7285;50.894;5.462;2023-03-11T09:02:24;1.10;;;1.10;;
14400;SDS011;7285;50.894;5.462;2023-03-11T09:04:52;1.00;;;1.00;;
14400;SDS011;7285;50.894;5.462;2023-03-11T09:07:19;0.93;;;0.93;;
14400;SDS011;7285;50.894;5.462;2023-03-11T09:09:46;1.17;;;1.17;;
14400;SDS011;7285;50.894;5.462;2023-03-11T09:12:13;1.70;;;1.67;;
14400;SDS011;7285;50.894;5.462;2023-03-11T09:14:41;1.00;;;1.00;;
14400;SDS011;7285;50.894;5.462;2023-03-11T09:17:10;1.30;;;1.30;;
14400;SDS011;7285;50.894;5.462;2023-03-11T09:19:39;1.43;;;1.43;;
14400;SDS011;7285;50.894;5.462;2023-03-11T09:22:06;1.00;;;1.00;;
14400;SDS011;7285;50.894;5.462;2023-03-11T09:24:34;1.20;;;1.20;;
14400;SDS011;7285;50.894;5.462;2023-03-11T09:27:01;0.87;;;0.87;;
14400;SDS011;7285;50.894;5.462;2023-03-11T09:29:28;0.90;;;0.90;;
14400;SDS011;7285;50.894;5.462;2023-03-11T09:31:55;1.00;;;1.00;;
14400;SDS011;7285;50.894;5.462;2023-03-11T09:34:22;0.90;;;0.90;;
14400;SDS011;7285;50.894;5.462;2023-03-11T09:36:52;1.00;;;1.00;;
14400;SDS011;7285;50.894;5.462;2023-03-11T09:39:19;1.47;;;1.47;;
14400;SDS011;7285;50.894;5.462;2023-03-11T09:41:48;1.00;;;1.00;;
14400;SDS011;7285;50.894;5.462;2023-03-11T09:44:19;0.90;;;0.90;;
14400;SDS011;7285;50.894;5.462;2023-03-11T09:50:07;1.10;;;1.10;;
14400;SDS011;7285;50.894;5.462;2023-03-11T09:52:47;0.90;;;0.90;;
14400;SDS011;7285;50.894;5.462;2023-03-11T09:55:34;1.03;;;1.03;;
14400;SDS011;7285;50.894;5.462;2023-03-11T09:58:08;0.90;;;0.90;;
14400;SDS011;7285;50.894;5.462;2023-03-11T10:00:38;0.90;;;0.90;;
14400;SDS011;7285;50.894;5.462;2023-03-11T10:03:06;0.87;;;0.87;;
14400;SDS011;7285;50.894;5.462;2023-03-11T10:05:42;0.97;;;0.97;;
14400;SDS011;7285;50.894;5.462;2023-03-11T10:08:15;0.90;;;0.90;;
14400;SDS011;7285;50.894;5.462;2023-03-11T10:10:53;0.90;;;0.90;;
14400;SDS011;7285;50.894;5.462;2023-03-11T10:13:27;0.93;;;0.93;;
14400;SDS011;7285;50.894;5.462;2023-03-11T10:16:01;0.80;;;0.80;;
14400;SDS011;7285;50.894;5.462;2023-03-11T10:18:39;0.80;;;0.80;;
14400;SDS011;7285;50.894;5.462;2023-03-11T10:21:17;0.80;;;0.80;;
14400;SDS011;7285;50.894;5.462;2023-03-11T10:24:02;0.90;;;0.90;;
14400;SDS011;7285;50.894;5.462;2023-03-11T10:26:40;0.83;;;0.83;;
14400;SDS011;7285;50.894;5.462;2023-03-11T10:29:12;0.80;;;0.80;;
14400;SDS011;7285;50.894;5.462;2023-03-11T10:31:43;0.80;;;0.80;;
14400;SDS011;7285;50.894;5.462;2023-03-11T10:34:15;1.40;;;1.40;;
14400;SDS011;7285;50.894;5.462;2023-03-11T10:36:49;0.83;;;0.83;;
14400;SDS011;7285;50.894;5.462;2023-03-11T10:39:22;0.80;;;0.80;;
14400;SDS011;7285;50.894;5.462;2023-03-11T10:41:51;0.70;;;0.70;;
14400;SDS011;7285;50.894;5.462;2023-03-11T10:44:21;0.80;;;0.80;;
14400;SDS011;7285;50.894;5.462;2023-03-11T10:46:53;0.70;;;0.70;;
14400;SDS011;7285;50.894;5.462;2023-03-11T10:49:20;0.70;;;0.70;;
14400;SDS011;7285;50.894;5.462;2023-03-11T10:51:48;0.80;;;0.80;;
14400;SDS011;7285;50.894;5.462;2023-03-11T10:54:25;0.97;;;0.97;;
14400;SDS011;7285;50.894;5.462;2023-03-11T10:56:54;1.27;;;1.07;;
14400;SDS011;7285;50.894;5.462;2023-03-11T10:59:23;1.07;;;1.07;;
14400;SDS011;7285;50.894;5.462;2023-03-11T11:01:53;0.80;;;0.80;;
14400;SDS011;7285;50.894;5.462;2023-03-11T11:04:26;0.80;;;0.80;;
14400;SDS011;7285;50.894;5.462;2023-03-11T11:06:55;0.90;;;0.90;;
14400;SDS011;7285;50.894;5.462;2023-03-11T11:09:26;1.00;;;1.00;;
14400;SDS011;7285;50.894;5.462;2023-03-11T11:12:02;0.80;;;0.80;;
14400;SDS011;7285;50.894;5.462;2023-03-11T11:14:40;0.80;;;0.80;;
14400;SDS011;7285;50.894;5.462;2023-03-11T11:17:15;0.70;;;0.70;;
14400;SDS011;7285;50.894;5.462;2023-03-11T11:19:44;0.80;;;0.80;;
14400;SDS011;7285;50.894;5.462;2023-03-11T11:22:14;0.80;;;0.80;;
14400;SDS011;7285;50.894;5.462;2023-03-11T11:24:46;0.73;;;0.73;;
14400;SDS011;7285;50.894;5.462;2023-03-11T11:27:16;0.80;;;0.80;;
14400;SDS011;7285;50.894;5.462;2023-03-11T11:29:45;0.90;;;0.90;;
14400;SDS011;7285;50.894;5.462;2023-03-11T11:32:17;0.77;;;0.77;;
14400;SDS011;7285;50.894;5.462;2023-03-11T11:34:52;0.87;;;0.87;;
14400;SDS011;7285;50.894;5.462;2023-03-11T11:37:22;0.70;;;0.70;;
14400;SDS011;7285;50.894;5.462;2023-03-11T11:39:58;0.70;;;0.70;;
14400;SDS011;7285;50.894;5.462;2023-03-11T11:42:34;1.27;;;1.27;;
14400;SDS011;7285;50.894;5.462;2023-03-11T11:45:03;0.70;;;0.70;;
14400;SDS011;7285;50.894;5.462;2023-03-11T11:47:38;1.07;;;1.07;;
14400;SDS011;7285;50.894;5.462;2023-03-11T11:50:12;0.97;;;0.97;;
14400;SDS011;7285;50.894;5.462;2023-03-11T11:52:43;0.60;;;0.60;;
14400;SDS011;7285;50.894;5.462;2023-03-11T11:55:17;0.90;;;0.90;;
14400;SDS011;7285;50.894;5.462;2023-03-11T11:57:46;0.70;;;0.70;;
14400;SDS011;7285;50.894;5.462;2023-03-11T12:00:17;0.70;;;0.70;;
14400;SDS011;7285;50.894;5.462;2023-03-11T12:02:47;0.80;;;0.80;;
14400;SDS011;7285;50.894;5.462;2023-03-11T12:05:30;0.67;;;0.67;;
14400;SDS011;7285;50.894;5.462;2023-03-11T12:08:05;0.70;;;0.70;;
14400;SDS011;7285;50.894;5.462;2023-03-11T12:10:44;0.73;;;0.73;;
14400;SDS011;7285;50.894;5.462;2023-03-11T12:13:32;1.10;;;1.10;;
14400;SDS011;7285;50.894;5.462;2023-03-11T12:16:14;0.70;;;0.70;;
14400;SDS011;7285;50.894;5.462;2023-03-11T12:18:49;0.60;;;0.60;;
14400;SDS011;7285;50.894;5.462;2023-03-11T12:21:24;0.70;;;0.70;;
14400;SDS011;7285;50.894;5.462;2023-03-11T12:24:04;0.60;;;0.60;;
14400;SDS011;7285;50.894;5.462;2023-03-11T12:26:42;0.70;;;0.70;;
14400;SDS011;7285;50.894;5.462;2023-03-11T12:29:11;0.70;;;0.70;;
14400;SDS011;7285;50.894;5.462;2023-03-11T12:31:45;0.80;;;0.80;;
14400;SDS011;7285;50.894;5.462;2023-03-11T12:34:13;0.80;;;0.80;;
14400;SDS011;7285;50.894;5.462;2023-03-11T12:36:45;0.70;;;0.70;;
14400;SDS011;7285;50.894;5.462;2023-03-11T12:39:19;0.80;;;0.80;;
14400;SDS011;7285;50.894;5.462;2023-03-11T12:41:49;0.60;;;0.60;;
14400;SDS011;7285;50.894;5.462;2023-03-11T12:44:46;1.30;;;1.30;;
14400;SDS011;7285;50.894;5.462;2023-03-11T12:47:18;0.67;;;0.67;;
14400;SDS011;7285;50.894;5.462;2023-03-11T12:49:50;0.60;;;0.60;;
14400;SDS011;7285;50.894;5.462;2023-03-11T12:55:23;0.60;;;0.60;;
14400;SDS011;7285;50.894;5.462;2023-03-11T12:58:21;0.60;;;0.60;;
14400;SDS011;7285;50.894;5.462;2023-03-11T13:01:21;0.60;;;0.60;;
14400;SDS011;7285;50.894;5.462;2023-03-11T13:04:04;0.70;;;0.70;;
14400;SDS011;7285;50.894;5.462;2023-03-11T13:06:58;0.80;;;0.80;;
14400;SDS011;7285;50.894;5.462;2023-03-11T13:09:37;0.73;;;0.73;;
14400;SDS011;7285;50.894;5.462;2023-03-11T13:18:00;0.50;;;0.50;;
14400;SDS011;7285;50.894;5.462;2023-03-11T13:23:34;0.70;;;0.70;;
14400;SDS011;7285;50.894;5.462;2023-03-11T13:26:10;0.70;;;0.70;;
14400;SDS011;7285;50.894;5.462;2023-03-11T13:29:03;1.53;;;1.53;;
14400;SDS011;7285;50.894;5.462;2023-03-11T13:31:53;0.70;;;0.70;;
14400;SDS011;7285;50.894;5.462;2023-03-11T13:34:36;0.90;;;0.90;;
14400;SDS011;7285;50.894;5.462;2023-03-11T13:37:11;1.03;;;1.03;;
14400;SDS011;7285;50.894;5.462;2023-03-11T13:39:52;0.80;;;0.80;;
14400;SDS011;7285;50.894;5.462;2023-03-11T13:42:29;1.27;;;1.27;;
14400;SDS011;7285;50.894;5.462;2023-03-11T13:44:59;0.90;;;0.90;;
14400;SDS011;7285;50.894;5.462;2023-03-11T13:47:30;0.80;;;0.80;;
14400;SDS011;7285;50.894;5.462;2023-03-11T13:49:59;0.60;;;0.60;;
14400;SDS011;7285;50.894;5.462;2023-03-11T13:52:30;0.50;;;0.50;;
14400;SDS011;7285;50.894;5.462;2023-03-11T13:55:00;0.60;;;0.60;;
14400;SDS011;7285;50.894;5.462;2023-03-11T13:57:31;0.70;;;0.70;;
14400;SDS011;7285;50.894;5.462;2023-03-11T14:00:03;0.47;;;0.47;;
14400;SDS011;7285;50.894;5.462;2023-03-11T14:02:46;0.40;;;0.40;;
14400;SDS011;7285;50.894;5.462;2023-03-11T14:05:16;0.53;;;0.53;;
14400;SDS011;7285;50.894;5.462;2023-03-11T14:07:46;0.40;;;0.40;;
14400;SDS011;7285;50.894;5.462;2023-03-11T14:10:16;0.40;;;0.40;;
14400;SDS011;7285;50.894;5.462;2023-03-11T14:12:45;0.43;;;0.43;;
14400;SDS011;7285;50.894;5.462;2023-03-11T14:15:12;0.50;;;0.50;;
14400;SDS011;7285;50.894;5.462;2023-03-11T14:17:42;0.50;;;0.50;;
14400;SDS011;7285;50.894;5.462;2023-03-11T14:20:12;0.40;;;0.40;;
14400;SDS011;7285;50.894;5.462;2023-03-11T14:22:44;0.50;;;0.50;;
14400;SDS011;7285;50.894;5.462;2023-03-11T14:25:16;0.47;;;0.47;;
14400;SDS011;7285;50.894;5.462;2023-03-11T14:27:47;0.50;;;0.50;;
14400;SDS011;7285;50.894;5.462;2023-03-11T14:30:18;0.73;;;0.73;;
14400;SDS011;7285;50.894;5.462;2023-03-11T14:32:54;0.40;;;0.40;;
14400;SDS011;7285;50.894;5.462;2023-03-11T14:35:27;0.50;;;0.50;;
14400;SDS011;7285;50.894;5.462;2023-03-11T14:37:55;0.40;;;0.40;;
14400;SDS011;7285;50.894;5.462;2023-03-11T14:40:24;0.50;;;0.50;;
14400;SDS011;7285;50.894;5.462;2023-03-11T14:42:52;0.50;;;0.50;;
14400;SDS011;7285;50.894;5.462;2023-03-11T14:45:22;0.50;;;0.50;;
14400;SDS011;7285;50.894;5.462;2023-03-11T14:47:52;0.50;;;0.50;;
14400;SDS011;7285;50.894;5.462;2023-03-11T14:50:23;0.60;;;0.60;;
14400;SDS011;7285;50.894;5.462;2023-03-11T14:52:55;0.60;;;0.60;;
14400;SDS011;7285;50.894;5.462;2023-03-11T14:55:26;0.50;;;0.50;;
14400;SDS011;7285;50.894;5.462;2023-03-11T14:57:56;0.93;;;0.93;;
14400;SDS011;7285;50.894;5.462;2023-03-11T15:00:26;0.60;;;0.60;;
14400;SDS011;7285;50.894;5.462;2023-03-11T15:03:04;0.60;;;0.60;;
14400;SDS011;7285;50.894;5.462;2023-03-11T15:05:42;0.60;;;0.60;;
14400;SDS011;7285;50.894;5.462;2023-03-11T15:08:14;0.80;;;0.80;;
14400;SDS011;7285;50.894;5.462;2023-03-11T15:13:29;0.60;;;0.60;;
14400;SDS011;7285;50.894;5.462;2023-03-11T15:15:56;0.60;;;0.60;;
14400;SDS011;7285;50.894;5.462;2023-03-11T15:18:24;0.63;;;0.63;;
14400;SDS011;7285;50.894;5.462;2023-03-11T15:21:04;0.60;;;0.60;;
14400;SDS011;7285;50.894;5.462;2023-03-11T15:23:37;0.60;;;0.60;;
14400;SDS011;7285;50.894;5.462;2023-03-11T15:26:15;0.60;;;0.60;;
14400;SDS011;7285;50.894;5.462;2023-03-11T15:28:55;0.60;;;0.60;;
14400;SDS011;7285;50.894;5.462;2023-03-11T15:31:28;0.60;;;0.60;;
14400;SDS011;7285;50.894;5.462;2023-03-11T15:34:10;0.60;;;0.60;;
14400;SDS011;7285;50.894;5.462;2023-03-11T15:36:57;0.60;;;0.60;;